createdAt,value
2019-05-18T00:00:36.417Z,91.00
2019-05-18T00:03:07.673Z,91.10
2019-05-18T00:05:39.046Z,91.10
2019-05-18T00:08:11.570Z,91.00
2019-05-18T00:10:43.042Z,91.00
2019-05-18T00:13:14.530Z,90.90
2019-05-18T00:15:45.716Z,91.00
2019-05-18T00:18:17.148Z,90.90
2019-05-18T00:20:48.521Z,90.80
2019-05-18T00:23:19.912Z,90.80
2019-05-18T00:25:51.412Z,90.80
2019-05-18T00:28:24.147Z,90.80
2019-05-18T00:30:55.470Z,90.80
2019-05-18T00:33:26.765Z,90.70
2019-05-18T00:35:58.188Z,90.70
2019-05-18T00:38:29.566Z,90.70
2019-05-18T00:41:01.021Z,90.70
2019-05-18T00:43:32.478Z,90.70
2019-05-18T00:46:04.493Z,90.70
2019-05-18T00:48:35.984Z,90.70
2019-05-18T00:51:07.419Z,90.60
2019-05-18T00:53:38.722Z,90.60
2019-05-18T00:56:10.211Z,90.60
2019-05-18T00:58:41.846Z,90.60
2019-05-18T01:01:13.412Z,90.60
2019-05-18T01:03:44.881Z,90.60
2019-05-18T01:06:16.166Z,90.60
2019-05-18T01:08:47.433Z,90.60
2019-05-18T01:11:18.937Z,90.60
2019-05-18T01:13:50.339Z,90.60
2019-05-18T01:16:21.589Z,90.60
2019-05-18T01:18:52.926Z,90.60
2019-05-18T01:21:24.441Z,90.60
2019-05-18T01:23:55.968Z,90.70
2019-05-18T01:26:27.156Z,90.60
2019-05-18T01:29:01.805Z,90.60
2019-05-18T01:31:33.550Z,90.70
2019-05-18T01:34:04.954Z,90.70
2019-05-18T01:36:36.398Z,90.80
2019-05-18T01:39:07.765Z,90.80
2019-05-18T01:41:39.077Z,90.80
2019-05-18T01:44:10.415Z,90.80
2019-05-18T01:46:41.974Z,90.80
2019-05-18T01:49:13.491Z,90.80
2019-05-18T01:51:45.065Z,90.80
2019-05-18T01:54:16.532Z,90.80
2019-05-18T01:56:48.005Z,90.80
2019-05-18T01:59:19.492Z,90.80
2019-05-18T02:01:50.831Z,90.80
2019-05-18T02:04:22.626Z,90.80
2019-05-18T02:06:55.017Z,90.80
2019-05-18T02:09:26.536Z,90.90
2019-05-18T02:11:57.997Z,91.10
2019-05-18T02:14:29.441Z,91.10
2019-05-18T02:17:00.746Z,91.20
2019-05-18T02:19:32.351Z,91.20
2019-05-18T02:22:03.890Z,91.30
2019-05-18T02:24:35.263Z,91.40
2019-05-18T02:27:06.793Z,91.40
2019-05-18T02:29:38.120Z,91.40
2019-05-18T02:32:09.633Z,91.50
2019-05-18T02:34:41.214Z,91.30
2019-05-18T02:37:12.666Z,91.20
2019-05-18T02:39:44.239Z,91.20
2019-05-18T02:42:15.582Z,91.30
2019-05-18T02:44:46.976Z,91.80
2019-05-18T02:47:18.214Z,91.70
2019-05-18T02:49:49.522Z,91.80
2019-05-18T02:52:20.909Z,91.90
2019-05-18T02:54:52.462Z,91.90
2019-05-18T02:57:23.840Z,91.90
2019-05-18T02:59:55.212Z,91.90
2019-05-18T03:02:26.629Z,91.80
2019-05-18T03:04:58.152Z,91.80
2019-05-18T03:07:29.476Z,91.90
2019-05-18T03:10:01.181Z,91.90
2019-05-18T03:12:32.753Z,91.90
2019-05-18T03:15:05.164Z,91.90
2019-05-18T03:17:36.573Z,91.80
2019-05-18T03:20:08.504Z,91.80
2019-05-18T03:22:39.831Z,91.90
2019-05-18T03:25:11.848Z,91.90
2019-05-18T03:27:43.554Z,91.90
2019-05-18T03:30:15.162Z,91.80
2019-05-18T03:32:46.905Z,91.80
2019-05-18T03:35:18.269Z,91.80
2019-05-18T03:37:49.936Z,91.80
2019-05-18T03:40:21.629Z,91.80
2019-05-18T03:42:53.045Z,91.80
2019-05-18T03:45:24.528Z,91.80
2019-05-18T03:47:56.159Z,91.80
2019-05-18T03:50:27.619Z,91.80
2019-05-18T03:52:59.002Z,91.80
2019-05-18T03:55:31.043Z,91.80
2019-05-18T03:58:02.629Z,91.80
2019-05-18T04:00:34.096Z,91.80
2019-05-18T04:03:05.687Z,91.70
2019-05-18T04:05:38.211Z,91.70
2019-05-18T04:08:09.581Z,91.60
2019-05-18T04:10:41.362Z,91.50
2019-05-18T04:13:12.850Z,91.50
2019-05-18T04:15:44.588Z,91.30
2019-05-18T04:18:16.086Z,91.30
2019-05-18T04:20:47.642Z,91.20
2019-05-18T04:23:19.190Z,91.20
2019-05-18T04:25:51.007Z,91.10
2019-05-18T04:28:22.888Z,91.10
2019-05-18T04:30:54.647Z,91.10
2019-05-18T04:33:26.163Z,91.10
2019-05-18T04:35:58.604Z,91.00
2019-05-18T04:38:31.184Z,91.00
2019-05-18T04:41:02.990Z,91.00
2019-05-18T04:43:34.839Z,91.00
2019-05-18T04:46:06.448Z,91.00
2019-05-18T04:48:37.861Z,90.90
2019-05-18T04:51:09.118Z,90.80
2019-05-18T04:53:40.495Z,90.70
2019-05-18T04:56:12.357Z,90.70
2019-05-18T04:58:43.825Z,90.70
2019-05-18T05:01:15.224Z,90.80
2019-05-18T05:03:46.664Z,91.10
2019-05-18T05:06:18.113Z,90.90
2019-05-18T05:08:49.691Z,90.90
2019-05-18T05:11:24.546Z,90.90
2019-05-18T05:13:55.806Z,90.90
2019-05-18T05:16:27.362Z,90.80
2019-05-18T05:18:58.675Z,90.60
2019-05-18T05:21:30.244Z,90.40
2019-05-18T05:24:01.682Z,90.30
2019-05-18T05:26:33.152Z,90.20
2019-05-18T05:29:04.479Z,90.20
2019-05-18T05:31:36.181Z,90.70
2019-05-18T05:34:07.605Z,90.90
2019-05-18T05:36:38.866Z,91.00
2019-05-18T05:39:10.488Z,91.20
2019-05-18T05:41:41.798Z,91.40
2019-05-18T05:44:13.253Z,91.70
2019-05-18T05:46:44.795Z,91.90
2019-05-18T05:49:16.093Z,92.00
2019-05-18T05:51:47.578Z,92.10
2019-05-18T05:54:19.145Z,92.20
2019-05-18T05:56:50.817Z,92.20
2019-05-18T05:59:22.199Z,92.30
2019-05-18T06:01:53.838Z,92.40
2019-05-18T06:04:25.630Z,92.50
2019-05-18T06:06:56.955Z,92.50
2019-05-18T06:09:29.170Z,92.50
2019-05-18T06:12:01.010Z,92.50
2019-05-18T06:14:32.418Z,92.90
2019-05-18T06:17:03.699Z,92.70
2019-05-18T06:19:35.086Z,92.80
2019-05-18T06:22:06.508Z,92.90
2019-05-18T06:24:37.946Z,93.00
2019-05-18T06:27:09.309Z,93.00
2019-05-18T06:29:41.145Z,93.00
2019-05-18T06:32:12.939Z,93.10
2019-05-18T06:34:44.714Z,93.20
2019-05-18T06:37:16.307Z,93.20
2019-05-18T06:39:47.566Z,93.20
2019-05-18T06:42:19.081Z,93.20
2019-05-18T06:44:50.857Z,93.20
2019-05-18T06:47:22.214Z,93.20
2019-05-18T06:49:53.386Z,93.20
2019-05-18T06:52:25.408Z,93.30
2019-05-18T06:54:57.720Z,93.30
2019-05-18T06:57:29.386Z,93.30
2019-05-18T07:00:03.566Z,93.20
2019-05-18T07:02:35.698Z,93.30
2019-05-18T07:05:07.070Z,93.40
2019-05-18T07:07:38.601Z,93.40
2019-05-18T07:10:10.076Z,93.30
2019-05-18T07:12:41.347Z,93.20
2019-05-18T07:15:14.669Z,93.30
2019-05-18T07:17:46.008Z,93.30
2019-05-18T07:20:17.324Z,93.30
2019-05-18T07:22:48.842Z,93.30
2019-05-18T07:25:20.353Z,93.30
2019-05-18T07:27:51.625Z,93.20
2019-05-18T07:30:23.169Z,93.10
2019-05-18T07:32:54.652Z,93.00
2019-05-18T07:35:25.972Z,93.00
2019-05-18T07:37:57.377Z,92.90
2019-05-18T07:40:28.841Z,92.80
2019-05-18T07:43:00.401Z,92.70
2019-05-18T07:45:31.949Z,92.80
2019-05-18T07:48:03.298Z,92.70
2019-05-18T07:50:34.861Z,92.80
2019-05-18T07:53:06.629Z,92.80
2019-05-18T07:55:37.976Z,92.80
2019-05-18T07:58:09.492Z,92.90
2019-05-18T08:00:40.850Z,92.90
2019-05-18T08:03:12.406Z,92.90
2019-05-18T08:05:44.201Z,92.90
2019-05-18T08:08:15.406Z,93.00
2019-05-18T08:10:46.813Z,93.00
2019-05-18T08:13:19.155Z,93.10
2019-05-18T08:15:50.434Z,93.10
2019-05-18T08:18:22.036Z,93.20
2019-05-18T08:20:53.355Z,93.30
2019-05-18T08:23:25.940Z,93.40
2019-05-18T08:25:57.746Z,93.40
2019-05-18T08:28:29.278Z,93.60
2019-05-18T08:31:01.070Z,93.70
2019-05-18T08:33:32.286Z,93.70
2019-05-18T08:36:03.628Z,93.60
2019-05-18T08:38:35.571Z,93.60
2019-05-18T08:41:06.769Z,93.60
2019-05-18T08:43:38.587Z,93.50
2019-05-18T08:46:10.247Z,93.50
2019-05-18T08:48:41.496Z,93.30
2019-05-18T08:51:12.891Z,93.20
2019-05-18T08:53:44.262Z,93.20
2019-05-18T08:56:15.699Z,93.40
2019-05-18T08:58:47.146Z,93.30
2019-05-18T09:01:18.600Z,93.30
2019-05-18T09:03:49.837Z,93.30
2019-05-18T09:06:21.987Z,93.20
2019-05-18T09:08:53.293Z,93.00
2019-05-18T09:11:25.015Z,93.00
2019-05-18T09:13:56.585Z,93.10
2019-05-18T09:16:28.163Z,92.90
2019-05-18T09:18:59.578Z,92.80
2019-05-18T09:21:31.216Z,92.60
2019-05-18T09:24:03.117Z,92.50
2019-05-18T09:26:34.658Z,92.40
2019-05-18T09:29:06.339Z,92.40
2019-05-18T09:31:38.498Z,92.40
2019-05-18T09:34:10.006Z,92.30
2019-05-18T09:36:41.278Z,92.20
2019-05-18T09:39:12.771Z,92.20
2019-05-18T09:41:44.331Z,92.00
2019-05-18T09:44:16.120Z,92.00
2019-05-18T09:46:49.310Z,92.20
2019-05-18T09:49:20.781Z,92.00
2019-05-18T09:51:52.283Z,91.80
2019-05-18T09:54:23.909Z,91.70
2019-05-18T09:56:55.776Z,91.50
2019-05-18T09:59:27.070Z,91.60
2019-05-18T10:01:58.323Z,91.50
2019-05-18T10:04:29.509Z,91.30
2019-05-18T10:07:00.796Z,91.10
2019-05-18T10:09:38.903Z,91.20
2019-05-18T10:12:05.629Z,91.20
2019-05-18T10:14:37.514Z,91.00
2019-05-18T10:17:08.976Z,90.80
2019-05-18T10:19:40.435Z,90.50
2019-05-18T10:22:12.565Z,90.10
2019-05-18T10:24:45.403Z,89.30
2019-05-18T10:27:16.658Z,89.70
2019-05-18T10:29:48.069Z,89.70
2019-05-18T10:32:19.604Z,88.10
2019-05-18T10:34:51.260Z,85.80
2019-05-18T10:37:22.731Z,83.70
2019-05-18T10:39:53.998Z,82.40
2019-05-18T10:42:25.497Z,82.60
2019-05-18T10:44:57.567Z,83.30
2019-05-18T10:47:28.841Z,83.30
2019-05-18T10:50:01.187Z,82.00
2019-05-18T10:52:32.602Z,81.00
2019-05-18T10:55:06.066Z,80.40
2019-05-18T10:57:37.823Z,79.70
2019-05-18T11:00:10.166Z,80.10
2019-05-18T11:02:42.062Z,80.20
2019-05-18T11:05:13.962Z,79.80
2019-05-18T11:07:45.570Z,79.00
2019-05-18T11:10:19.030Z,79.30
2019-05-18T11:12:50.423Z,80.00
2019-05-18T11:15:22.048Z,78.90
2019-05-18T11:17:53.522Z,78.50
2019-05-18T11:20:24.803Z,78.40
2019-05-18T11:22:56.981Z,78.40
2019-05-18T11:25:28.532Z,78.40
2019-05-18T11:27:59.855Z,79.00
2019-05-18T11:30:31.488Z,79.70
2019-05-18T11:33:02.823Z,80.10
2019-05-18T11:35:34.269Z,79.40
2019-05-18T11:38:06.000Z,78.40
2019-05-18T11:40:37.685Z,77.50
2019-05-18T11:43:09.256Z,76.30
2019-05-18T11:45:41.561Z,76.60
2019-05-18T11:48:12.981Z,74.80
2019-05-18T11:50:44.406Z,71.60
2019-05-18T11:53:16.395Z,70.40
2019-05-18T11:55:47.728Z,68.80
2019-05-18T11:58:19.526Z,68.80
2019-05-18T12:00:51.253Z,68.20
2019-05-18T12:03:22.563Z,67.90
2019-05-18T12:05:54.394Z,65.70
2019-05-18T12:08:25.773Z,64.40
2019-05-18T12:10:57.377Z,63.20
2019-05-18T12:13:28.725Z,61.20
2019-05-18T12:16:00.278Z,60.00
2019-05-18T12:18:32.161Z,59.80
2019-05-18T12:21:03.774Z,60.40
2019-05-18T12:23:35.100Z,59.80
2019-05-18T12:26:07.522Z,61.10
2019-05-18T12:28:38.911Z,60.90
2019-05-18T12:31:10.307Z,59.90
2019-05-18T12:33:41.623Z,59.00
2019-05-18T12:36:15.549Z,59.10
2019-05-18T12:38:46.113Z,59.80
2019-05-18T12:41:19.995Z,59.00
2019-05-18T12:43:51.360Z,58.40
2019-05-18T12:46:22.829Z,58.30
2019-05-18T12:48:54.567Z,57.90
2019-05-18T12:51:25.841Z,57.90
2019-05-18T12:53:57.386Z,58.40
2019-05-18T12:56:28.827Z,58.90
2019-05-18T12:59:00.285Z,59.00
2019-05-18T13:01:31.900Z,59.50
2019-05-18T13:04:03.406Z,60.50
2019-05-18T13:06:34.774Z,60.70
2019-05-18T13:09:07.231Z,62.60
2019-05-18T13:11:38.953Z,61.40
2019-05-18T13:14:10.380Z,60.30
2019-05-18T13:16:41.804Z,59.60
2019-05-18T13:19:13.221Z,56.80
2019-05-18T13:21:44.607Z,55.80
2019-05-18T13:24:16.281Z,56.40
2019-05-18T13:26:47.612Z,56.10
2019-05-18T13:29:19.437Z,56.30
2019-05-18T13:31:51.207Z,56.50
2019-05-18T13:34:22.557Z,56.70
2019-05-18T13:36:53.821Z,56.20
2019-05-18T13:39:25.023Z,56.00
2019-05-18T13:41:56.608Z,57.10
2019-05-18T13:44:27.926Z,56.80
2019-05-18T13:46:59.198Z,55.80
2019-05-18T13:49:30.599Z,54.10
2019-05-18T13:52:02.058Z,52.50
2019-05-18T13:54:33.404Z,51.60
2019-05-18T13:57:04.575Z,51.60
2019-05-18T13:59:35.871Z,50.90
2019-05-18T14:02:07.220Z,50.50
2019-05-18T14:04:38.893Z,50.90
2019-05-18T14:07:10.467Z,50.10
2019-05-18T14:09:41.783Z,49.50
2019-05-18T14:12:13.469Z,50.50
2019-05-18T14:14:45.049Z,50.50
2019-05-18T14:17:16.440Z,50.50
2019-05-18T14:19:47.814Z,51.40
2019-05-18T14:22:19.422Z,51.70
2019-05-18T14:24:52.100Z,52.50
2019-05-18T14:27:23.597Z,53.40
2019-05-18T14:29:55.121Z,53.80
2019-05-18T14:32:26.744Z,53.10
2019-05-18T14:34:58.174Z,53.90
2019-05-18T14:37:29.398Z,56.70
2019-05-18T14:40:00.780Z,56.70
2019-05-18T14:42:32.159Z,57.30
2019-05-18T14:45:05.568Z,57.70
2019-05-18T14:47:37.042Z,57.80
2019-05-18T14:50:08.987Z,57.70
2019-05-18T14:52:40.304Z,57.00
2019-05-18T14:55:12.059Z,57.10
2019-05-18T14:57:43.768Z,57.80
2019-05-18T15:00:15.638Z,58.10
2019-05-18T15:02:47.428Z,58.60
2019-05-18T15:05:18.791Z,58.80
2019-05-18T15:07:50.198Z,59.20
2019-05-18T15:10:21.453Z,59.60
2019-05-18T15:12:52.818Z,60.80
2019-05-18T15:15:24.817Z,61.60
2019-05-18T15:17:56.596Z,61.90
2019-05-18T15:20:27.920Z,62.50
2019-05-18T15:22:59.179Z,63.50
2019-05-18T15:25:30.663Z,64.50
2019-05-18T15:28:01.988Z,64.70
2019-05-18T15:30:34.583Z,62.40
2019-05-18T15:33:06.350Z,60.60
2019-05-18T15:35:37.598Z,60.20
2019-05-18T15:38:08.786Z,60.60
2019-05-18T15:40:40.080Z,60.90
2019-05-18T15:43:11.560Z,61.30
2019-05-18T15:45:42.836Z,62.00
2019-05-18T15:48:14.094Z,62.60
2019-05-18T15:50:45.465Z,63.00
2019-05-18T15:53:16.907Z,63.80
2019-05-18T15:55:48.512Z,65.60
2019-05-18T15:58:20.267Z,66.50
2019-05-18T16:00:52.099Z,67.50
2019-05-18T16:03:24.487Z,67.90
2019-05-18T16:05:55.848Z,68.60
2019-05-18T16:08:27.208Z,69.30
2019-05-18T16:10:58.939Z,70.00
2019-05-18T16:13:30.215Z,70.20
2019-05-18T16:16:01.803Z,71.00
2019-05-18T16:18:33.339Z,71.40
2019-05-18T16:21:04.785Z,71.80
2019-05-18T16:23:36.797Z,71.90
2019-05-18T16:26:20.657Z,72.00
2019-05-18T16:28:41.524Z,72.00
2019-05-18T16:31:12.715Z,71.90
2019-05-18T16:33:44.440Z,71.80
2019-05-18T16:36:15.681Z,71.90
2019-05-18T16:38:47.189Z,72.10
2019-05-18T16:41:18.452Z,72.50
2019-05-18T16:43:49.657Z,72.80
2019-05-18T16:46:21.035Z,73.30
2019-05-18T16:48:52.994Z,73.50
2019-05-18T16:51:24.593Z,73.90
2019-05-18T16:53:56.318Z,74.40
2019-05-18T16:56:34.908Z,75.00
2019-05-18T16:59:00.797Z,75.40
2019-05-18T17:01:32.261Z,75.50
2019-05-18T17:04:03.962Z,75.80
2019-05-18T17:06:35.342Z,76.10
2019-05-18T17:09:06.705Z,76.40
2019-05-18T17:11:38.154Z,76.70
2019-05-18T17:14:09.441Z,76.90
2019-05-18T17:16:42.906Z,77.20
2019-05-18T17:19:14.857Z,77.70
2019-05-18T17:21:46.615Z,77.90
2019-05-18T17:24:18.388Z,78.00
2019-05-18T17:26:53.194Z,78.20
2019-05-18T17:29:23.188Z,78.40
2019-05-18T17:31:54.679Z,78.80
2019-05-18T17:34:26.288Z,79.00
2019-05-18T17:36:57.663Z,79.30
2019-05-18T17:39:29.504Z,79.50
2019-05-18T17:42:04.617Z,79.80
2019-05-18T17:44:34.123Z,80.00
2019-05-18T17:47:05.482Z,80.30
2019-05-18T17:49:37.294Z,80.60
2019-05-18T17:52:08.630Z,80.80
2019-05-18T17:54:39.933Z,81.00
2019-05-18T17:57:12.130Z,81.30
2019-05-18T17:59:43.740Z,81.50
2019-05-18T18:02:15.006Z,81.80
2019-05-18T18:04:46.617Z,82.10
2019-05-18T18:07:18.159Z,82.20
2019-05-18T18:09:49.957Z,82.50
2019-05-18T18:12:21.529Z,82.70
2019-05-18T18:14:53.060Z,82.90
2019-05-18T18:17:24.716Z,83.00
2019-05-18T18:19:56.607Z,83.30
2019-05-18T18:22:27.896Z,83.50
2019-05-18T18:24:59.372Z,83.70
2019-05-18T18:27:30.730Z,83.90
2019-05-18T18:30:04.660Z,84.80
2019-05-18T18:32:37.794Z,84.50
2019-05-18T18:35:09.222Z,84.70
2019-05-18T18:37:40.573Z,85.00
2019-05-18T18:40:12.604Z,85.30
2019-05-18T18:42:44.025Z,85.60
2019-05-18T18:45:15.789Z,85.90
2019-05-18T18:47:47.626Z,86.20
2019-05-18T18:50:19.487Z,86.40
2019-05-18T18:52:51.227Z,86.60
2019-05-18T18:55:23.007Z,86.80
2019-05-18T18:57:54.281Z,86.90
2019-05-18T19:00:25.890Z,87.10
2019-05-18T19:02:57.146Z,87.20
2019-05-18T19:05:28.363Z,87.30
2019-05-18T19:08:00.408Z,87.50
2019-05-18T19:10:31.804Z,87.40
2019-05-18T19:13:03.315Z,87.40
2019-05-18T19:15:34.814Z,87.40
2019-05-18T19:18:06.790Z,87.60
2019-05-18T19:20:39.039Z,87.60
2019-05-18T19:23:10.886Z,87.50
2019-05-18T19:25:42.229Z,87.60
2019-05-18T19:28:13.706Z,87.60
2019-05-18T19:30:45.012Z,87.60
2019-05-18T19:33:16.356Z,87.80
2019-05-18T19:35:47.902Z,87.70
2019-05-18T19:38:19.200Z,87.70
2019-05-18T19:40:50.951Z,87.70
2019-05-18T19:43:22.532Z,88.40
2019-05-18T19:45:54.126Z,88.10
2019-05-18T19:48:25.627Z,88.10
2019-05-18T19:50:57.475Z,88.20
2019-05-18T19:53:29.022Z,88.40
2019-05-18T19:56:00.963Z,88.40
2019-05-18T19:58:32.737Z,88.50
2019-05-18T20:01:04.192Z,88.50
2019-05-18T20:03:35.676Z,88.70
2019-05-18T20:06:07.392Z,88.80
2019-05-18T20:08:39.066Z,88.90
2019-05-18T20:11:10.850Z,89.00
2019-05-18T20:13:42.878Z,89.20
2019-05-18T20:16:15.306Z,89.30
2019-05-18T20:18:47.459Z,89.40
2019-05-18T20:21:19.110Z,89.40
2019-05-18T20:23:50.790Z,89.50
2019-05-18T20:26:22.260Z,89.60
2019-05-18T20:28:56.582Z,89.90
2019-05-18T20:31:27.033Z,90.00
2019-05-18T20:33:58.646Z,90.00
2019-05-18T20:36:30.585Z,90.20
2019-05-18T20:39:02.235Z,90.20
2019-05-18T20:41:35.217Z,90.30
2019-05-18T20:44:06.868Z,90.30
2019-05-18T20:46:38.406Z,90.20
2019-05-18T20:49:09.964Z,90.30
2019-05-18T20:51:41.209Z,90.40
2019-05-18T20:54:14.135Z,90.40
2019-05-18T20:56:46.351Z,90.40
2019-05-18T20:59:18.027Z,90.40
2019-05-18T21:01:49.318Z,90.50
2019-05-18T21:04:21.042Z,90.40
2019-05-18T21:06:53.685Z,90.50
2019-05-18T21:09:25.324Z,90.50
2019-05-18T21:11:56.903Z,90.40
2019-05-18T21:14:28.511Z,90.30
2019-05-18T21:17:00.095Z,90.20
2019-05-18T21:19:31.584Z,90.10
2019-05-18T21:22:03.108Z,90.10
2019-05-18T21:24:34.695Z,90.00
2019-05-18T21:27:06.098Z,89.90
2019-05-18T21:29:37.730Z,89.70
2019-05-18T21:32:09.307Z,89.50
2019-05-18T21:34:40.685Z,89.40
2019-05-18T21:37:13.312Z,89.30
2019-05-18T21:39:45.078Z,89.30
2019-05-18T21:42:16.702Z,89.20
2019-05-18T21:44:48.083Z,89.30
2019-05-18T21:47:19.570Z,89.30
2019-05-18T21:49:51.657Z,89.20
2019-05-18T21:52:23.069Z,89.20
2019-05-18T21:54:54.371Z,89.20
2019-05-18T21:57:25.708Z,89.20
2019-05-18T21:59:57.379Z,89.90
2019-05-18T22:02:28.703Z,89.30
2019-05-18T22:05:00.378Z,89.20
2019-05-18T22:07:31.962Z,89.10
2019-05-18T22:10:05.882Z,88.90
2019-05-18T22:12:37.346Z,88.80
2019-05-18T22:15:09.193Z,88.70
2019-05-18T22:17:59.269Z,88.50
2019-05-18T22:20:32.236Z,88.40
2019-05-18T22:23:03.716Z,88.30
2019-05-18T22:25:35.511Z,88.10
2019-05-18T22:28:07.149Z,88.00
2019-05-18T22:30:38.877Z,88.00
2019-05-18T22:33:10.606Z,88.00
2019-05-18T22:35:42.214Z,87.90
2019-05-18T22:38:13.963Z,87.90
2019-05-18T22:40:45.339Z,87.70
2019-05-18T22:43:16.873Z,87.70
2019-05-18T22:45:49.014Z,87.70
2019-05-18T22:48:20.554Z,87.60
2019-05-18T22:50:52.183Z,87.60
2019-05-18T22:53:24.001Z,87.60
2019-05-18T22:55:55.539Z,87.60
2019-05-18T22:58:27.334Z,87.60
2019-05-18T23:00:58.851Z,87.50
2019-05-18T23:03:30.810Z,87.50
2019-05-18T23:06:02.341Z,87.50
2019-05-18T23:08:33.935Z,87.50
2019-05-18T23:11:05.198Z,87.50
2019-05-18T23:13:38.309Z,87.40
2019-05-18T23:16:11.629Z,87.40
2019-05-18T23:18:55.857Z,87.50
2019-05-18T23:21:16.588Z,87.50
2019-05-18T23:23:48.053Z,87.50
2019-05-18T23:26:19.458Z,87.60
2019-05-18T23:28:51.117Z,87.50
2019-05-18T23:31:22.996Z,87.50
2019-05-18T23:33:54.947Z,87.50
2019-05-18T23:36:26.547Z,87.60
2019-05-18T23:38:58.069Z,87.60
2019-05-18T23:41:29.814Z,87.60
2019-05-18T23:44:01.312Z,87.60
2019-05-18T23:46:32.692Z,87.70
2019-05-18T23:49:11.004Z,87.70
2019-05-18T23:51:37.612Z,87.70
2019-05-18T23:54:09.357Z,87.70
2019-05-18T23:56:41.021Z,87.60
2019-05-18T23:59:12.460Z,87.60
